Terminal Aerodrome Forecast
Issued by NWS

Home | Current Version | Previous Version | Text Only | Print | Product List | Glossary On
Versions: 1 2 3 4 5 6 7 8 9 10 11
000
FTUS43 KPAH 091120
TAFCGI
TAF
KCGI 091120Z 0912/1012 23009KT P6SM SCT025 OVC050
      TEMPO 0912/0916 29009G15KT BKN025
     FM091600 30012G22KT P6SM SCT025 BKN035
     FM091800 32013G23KT P6SM SCT025
     FM092100 32013G23KT P6SM SCT035
     FM100000 30007KT P6SM SKC
     FM100800 25003KT P6SM SKC=

USA.gov is the U.S. government's official web portal to all federal, state and local government web resources and services.